Time;durP1;ratioP1;P1;durP2;ratioP2;P2;SDS_P1;SDS_P2;PMS_P1;PMS_P2;Temp;Humidity;BMP_temperature;BMP_pressure;BME280_temperature;BME280_humidity;BME280_pressure;Samples;Min_cycle;Max_cycle;Signal;HPM_P1;HPM_P2
2020/12/02 00:01:05;;;;;;;22.35;13.35;;;;;;;4.48;84.82;102359.22;5050048;28;20095;-77
2020/12/02 00:03:36;;;;;;;27.75;15.65;;;;;;;4.49;84.52;102368.16;5029320;28;20028;-77
2020/12/02 00:06:01;;;;;;;23.92;14.35;;;;;;;4.50;84.69;102361.72;5031630;28;20059;-77
2020/12/02 00:08:47;;;;;;;25.23;15.27;;;;;;;4.51;84.54;102363.41;5060517;28;20394;-77
2020/12/02 00:11:13;;;;;;;25.92;14.50;;;;;;;4.52;84.67;102359.66;5050469;28;20025;-77
2020/12/02 00:13:40;;;;;;;23.42;13.32;;;;;;;4.52;84.91;102368.59;5050353;28;20028;-78
2020/12/02 00:16:06;;;;;;;28.27;15.38;;;;;;;4.52;84.72;102365.06;5048943;28;20394;-77
2020/12/02 00:18:33;;;;;;;20.52;13.98;;;;;;;4.54;84.78;102361.13;5047588;28;20104;-77
2020/12/02 00:20:58;;;;;;;21.15;13.48;;;;;;;4.54;84.68;102365.69;5050001;28;20033;-77
2020/12/02 00:23:24;;;;;;;22.80;14.50;;;;;;;4.54;84.40;102363.84;5050111;28;20091;-77
2020/12/02 00:25:49;;;;;;;26.92;15.57;;;;;;;4.56;84.52;102360.94;5050236;28;20115;-77
2020/12/02 00:28:15;;;;;;;21.85;14.07;;;;;;;4.57;84.69;102362.59;5048656;28;20363;-77
2020/12/02 00:30:40;;;;;;;25.48;15.57;;;;;;;4.56;84.87;102360.94;5051161;28;20025;-77
2020/12/02 00:33:20;;;;;;;22.75;13.65;;;;;;;4.57;84.83;102368.00;5061036;28;20045;-77
2020/12/02 00:35:45;;;;;;;21.45;12.05;;;;;;;4.57;84.73;102366.13;5046915;28;20037;-77
2020/12/02 00:38:11;;;;;;;23.10;13.73;;;;;;;4.56;84.83;102360.94;5047580;28;20035;-77
2020/12/02 00:40:37;;;;;;;23.50;13.88;;;;;;;4.58;84.86;102350.75;5075036;28;20036;-77
2020/12/02 00:43:02;;;;;;;22.63;13.40;;;;;;;4.60;84.59;102359.50;5049125;28;20040;-77
2020/12/02 00:45:28;;;;;;;23.98;14.10;;;;;;;4.62;84.67;102352.06;5050039;28;20104;-77
2020/12/02 00:47:53;;;;;;;20.15;13.27;;;;;;;4.64;84.74;102355.41;5050371;28;20032;-77
2020/12/02 00:50:20;;;;;;;21.75;13.65;;;;;;;4.64;84.54;102348.13;5051250;28;20021;-77
2020/12/02 00:53:06;;;;;;;19.40;12.23;;;;;;;4.65;84.77;102355.19;5083425;28;20032;-77
2020/12/02 00:55:31;;;;;;;21.25;12.82;;;;;;;4.66;84.74;102350.63;5043195;28;20025;-78
2020/12/02 00:57:57;;;;;;;20.88;12.82;;;;;;;4.64;84.45;102353.53;5052854;28;20154;-77
2020/12/02 01:00:24;;;;;;;18.00;11.65;;;;;;;4.63;84.75;102356.41;5037148;28;20028;-77
2020/12/02 01:02:54;;;;;;;18.67;12.15;;;;;;;4.62;84.55;102355.59;5068560;28;20212;-77
2020/12/02 01:05:20;;;;;;;21.27;13.32;;;;;;;4.62;84.46;102361.00;5051604;28;20028;-77
2020/12/02 01:07:46;;;;;;;19.38;12.02;;;;;;;4.61;84.53;102359.34;5050684;28;20033;-77
2020/12/02 01:10:11;;;;;;;20.13;12.07;;;;;;;4.62;84.75;102365.56;5052252;28;20120;-77
2020/12/02 01:12:37;;;;;;;17.60;11.90;;;;;;;4.62;84.67;102354.75;5052553;28;20075;-77
2020/12/02 01:15:06;;;;;;;15.95;10.95;;;;;;;4.62;84.57;102347.47;5069109;28;20400;-77
2020/12/02 01:17:31;;;;;;;17.88;11.88;;;;;;;4.63;84.65;102346.44;5053111;28;20107;-77
2020/12/02 01:19:56;;;;;;;16.65;10.35;;;;;;;4.62;84.46;102350.19;5035625;28;20051;-77
2020/12/02 01:22:30;;;;;;;18.60;11.90;;;;;;;4.61;84.34;102342.25;5052962;28;20386;-77
2020/12/02 01:25:10;;;;;;;16.58;10.15;;;;;;;4.60;84.35;102346.84;5050515;28;20568;-77
2020/12/02 01:27:41;;;;;;;16.83;10.57;;;;;;;4.62;84.27;102343.94;5052837;28;20363;-79
2020/12/02 01:30:07;;;;;;;17.85;11.07;;;;;;;4.62;84.51;102344.78;5032275;28;20095;-77
2020/12/02 01:32:33;;;;;;;21.33;11.18;;;;;;;4.63;84.31;102340.22;5033731;28;20056;-77
2020/12/02 01:34:58;;;;;;;14.48;9.70;;;;;;;4.63;84.48;102348.31;5053269;28;20103;-77
2020/12/02 01:37:28;;;;;;;17.38;10.55;;;;;;;4.63;84.41;102345.63;5035777;28;20429;-78
2020/12/02 01:39:59;;;;;;;15.30;9.73;;;;;;;4.63;84.54;102351.84;5053085;28;20390;-77
2020/12/02 01:42:25;;;;;;;13.82;9.15;;;;;;;4.64;84.45;102344.59;5017546;28;20108;-77
2020/12/02 01:44:50;;;;;;;12.82;9.30;;;;;;;4.63;84.40;102341.03;5053251;28;20079;-77
2020/12/02 01:47:38;;;;;;;16.27;10.55;;;;;;;4.64;84.35;102342.72;5052879;28;20367;-77
2020/12/02 01:50:19;;;;;;;15.30;10.45;;;;;;;4.64;84.19;102344.59;5048519;28;20044;-77
2020/12/02 01:52:50;;;;;;;17.30;10.13;;;;;;;4.64;84.18;102341.91;5050865;28;20020;-77
2020/12/02 01:55:19;;;;;;;15.98;9.35;;;;;;;4.63;84.13;102340.22;5050709;28;20029;-77
2020/12/02 01:57:45;;;;;;;14.43;9.90;;;;;;;4.64;84.24;102334.63;5035583;28;20099;-77
2020/12/02 02:00:16;;;;;;;16.85;10.57;;;;;;;4.62;84.18;102330.44;5051421;28;20559;-77
2020/12/02 02:03:12;;;;;;;18.65;10.95;;;;;;;4.61;84.17;102336.84;5036347;28;20033;-77
2020/12/02 02:05:40;;;;;;;17.73;11.57;;;;;;;4.61;84.31;102326.06;5048070;28;20052;-77
2020/12/02 02:08:05;;;;;;;17.00;10.82;;;;;;;4.61;84.32;102336.84;5051960;28;20419;-77
2020/12/02 02:10:36;;;;;;;21.90;11.95;;;;;;;4.60;84.32;102335.19;5051364;28;20033;-77
2020/12/02 02:13:29;;;;;;;19.88;11.52;;;;;;;4.59;84.21;102334.38;5053288;28;20505;-77
2020/12/02 02:16:01;;;;;;;21.80;12.15;;;;;;;4.55;84.00;102326.84;5049023;28;20029;-77
2020/12/02 02:18:28;;;;;;;17.98;11.00;;;;;;;4.54;83.97;102326.00;5053457;28;20048;-77
2020/12/02 02:21:01;;;;;;;20.23;13.77;;;;;;;4.53;84.02;102323.50;5050434;28;20171;-77
2020/12/02 02:23:26;;;;;;;18.73;12.45;;;;;;;4.50;84.04;102324.75;5052016;28;20028;-77
2020/12/02 02:26:08;;;;;;;20.45;13.70;;;;;;;4.52;84.20;102316.44;5051204;28;20021;-77
2020/12/02 02:28:34;;;;;;;;;;;;;;;4.53;84.07;102313.56;5052292;28;20025;-77
2020/12/02 02:31:00;;;;;;;22.27;13.75;;;;;;;4.49;84.05;102304.16;5050751;28;19919;-77
2020/12/02 02:33:25;;;;;;;24.60;14.32;;;;;;;4.49;83.90;102308.72;5051659;28;20049;-77
2020/12/02 02:35:50;;;;;;;21.73;13.57;;;;;;;4.45;84.09;102309.13;5051010;28;20037;-77
2020/12/02 02:38:19;;;;;;;19.80;13.48;;;;;;;4.47;84.16;102302.69;5051474;28;20103;-77
2020/12/02 02:40:45;;;;;;;23.73;13.85;;;;;;;4.48;84.18;102293.56;5047752;28;20033;-77
2020/12/02 02:43:11;;;;;;;24.27;15.35;;;;;;;4.50;84.24;102302.28;5052741;28;20021;-77
2020/12/02 02:45:36;;;;;;;22.02;14.30;;;;;;;4.49;84.27;102300.63;5050019;28;20021;-77
2020/12/02 02:48:06;;;;;;;22.02;14.50;;;;;;;4.47;84.06;102299.97;5051575;28;20032;-77
2020/12/02 02:50:32;;;;;;;23.75;15.48;;;;;;;4.46;83.82;102288.34;5044327;28;20025;-77
2020/12/02 02:52:57;;;;;;;22.92;14.85;;;;;;;4.48;84.02;102288.16;5051321;28;20100;-77
2020/12/02 02:55:24;;;;;;;19.27;13.25;;;;;;;4.49;83.95;102289.81;5033885;28;20025;-77
2020/12/02 02:57:49;;;;;;;26.73;15.52;;;;;;;4.50;83.86;102286.94;5050386;28;20081;-77
2020/12/02 03:00:29;;;;;;;23.90;14.50;;;;;;;4.49;84.04;102281.72;5050556;28;20021;-77
2020/12/02 03:02:56;;;;;;;23.40;15.85;;;;;;;4.50;83.81;102275.28;5049717;28;20094;-77
2020/12/02 03:05:21;;;;;;;24.65;14.65;;;;;;;4.47;83.78;102276.50;5051860;28;20021;-77
2020/12/02 03:07:50;;;;;;;23.63;14.50;;;;;;;4.48;83.85;102282.75;5051357;28;20035;-77
2020/12/02 03:10:16;;;;;;;22.83;13.80;;;;;;;4.47;83.90;102275.69;5042387;28;20405;-77
2020/12/02 03:12:43;;;;;;;24.55;15.52;;;;;;;4.48;83.97;102282.75;5084707;28;20024;-77
2020/12/02 03:15:08;;;;;;;21.27;13.63;;;;;;;4.47;84.03;102278.38;5031673;28;20040;-77
2020/12/02 03:17:34;;;;;;;21.05;14.18;;;;;;;4.46;83.95;102280.25;5050607;28;20416;-77
2020/12/02 03:20:03;;;;;;;22.30;14.55;;;;;;;4.45;83.78;102270.50;5050527;28;20484;-77
2020/12/02 03:22:28;;;;;;;24.70;15.20;;;;;;;4.44;83.79;102266.94;5034240;28;20025;-77
2020/12/02 03:24:55;;;;;;;21.50;13.57;;;;;;;4.43;83.65;102267.13;5049817;28;20054;-77
2020/12/02 03:27:20;;;;;;;26.50;15.10;;;;;;;4.43;83.90;102256.34;5052050;28;20025;-77
2020/12/02 03:29:45;;;;;;;18.80;13.13;;;;;;;4.44;83.75;102258.81;5046772;28;20111;-77
2020/12/02 03:32:11;;;;;;;20.13;13.65;;;;;;;4.45;84.00;102257.81;5045214;28;20045;-77
2020/12/02 03:34:36;;;;;;;22.40;14.13;;;;;;;4.47;83.62;102248.66;5049599;28;20024;-77
2020/12/02 03:37:02;;;;;;;21.58;13.80;;;;;;;4.43;83.89;102246.38;5052338;28;20440;-77
2020/12/02 03:39:27;;;;;;;23.35;14.32;;;;;;;4.42;83.62;102244.72;5049305;28;20017;-77
2020/12/02 03:41:53;;;;;;;23.08;13.88;;;;;;;4.39;83.66;102234.31;5048745;28;20410;-77
2020/12/02 03:44:18;;;;;;;23.00;14.27;;;;;;;4.39;83.79;102238.84;5050727;28;20040;-77
2020/12/02 03:46:44;;;;;;;25.20;14.65;;;;;;;4.39;83.79;102228.91;5051317;28;20021;-77
2020/12/02 03:49:09;;;;;;;24.23;15.55;;;;;;;4.38;83.86;102234.50;5034109;28;20029;-77
2020/12/02 03:51:36;;;;;;;23.52;15.25;;;;;;;4.38;83.50;102235.31;5049742;28;20025;-77
2020/12/02 03:54:01;;;;;;;23.38;13.80;;;;;;;4.38;83.68;102235.31;5050248;28;20117;-77
2020/12/02 03:56:27;;;;;;;22.42;14.25;;;;;;;4.38;83.81;102227.22;5049801;28;20108;-77
2020/12/02 03:58:52;;;;;;;24.55;15.60;;;;;;;4.38;83.76;102232.63;5050624;28;20033;-77
2020/12/02 04:01:18;;;;;;;25.90;16.20;;;;;;;4.37;83.68;102238.22;5049381;28;20033;-77
2020/12/02 04:03:43;;;;;;;24.83;15.00;;;;;;;4.37;83.47;102232.84;5050868;28;20033;-77
2020/12/02 04:06:09;;;;;;;24.52;15.32;;;;;;;4.37;83.72;102228.25;5050520;28;20067;-77
2020/12/02 04:08:38;;;;;;;20.98;13.73;;;;;;;4.36;83.80;102226.56;5050504;28;20025;-77
2020/12/02 04:11:05;;;;;;;22.77;13.60;;;;;;;4.36;83.53;102226.56;5048569;28;20025;-78
2020/12/02 04:13:30;;;;;;;21.50;15.13;;;;;;;4.35;83.63;102224.91;5032477;28;20036;-77
2020/12/02 04:15:56;;;;;;;23.27;13.05;;;;;;;4.34;83.57;102228.66;5049516;28;20033;-77
2020/12/02 04:18:21;;;;;;;22.55;14.13;;;;;;;4.33;83.46;102218.88;5051368;28;20029;-78
2020/12/02 04:20:47;;;;;;;17.58;12.52;;;;;;;4.34;83.71;102223.25;5050492;28;20436;-78
2020/12/02 04:23:12;;;;;;;24.02;14.65;;;;;;;4.34;83.72;102217.03;5051252;28;20409;-77
2020/12/02 04:25:38;;;;;;;20.67;13.32;;;;;;;4.34;83.28;102217.03;5050573;28;20027;-78
2020/12/02 04:28:03;;;;;;;20.27;13.32;;;;;;;4.33;83.46;102218.88;5052653;28;20036;-78
2020/12/02 04:30:28;;;;;;;25.58;14.23;;;;;;;4.34;83.20;102217.03;5069950;28;20029;-78
2020/12/02 04:32:54;;;;;;;21.27;13.57;;;;;;;4.35;83.80;102216.81;5054133;28;20049;-77
2020/12/02 04:35:19;;;;;;;23.40;13.55;;;;;;;4.35;83.36;102219.50;5054168;28;20017;-78
2020/12/02 04:37:45;;;;;;;22.40;14.35;;;;;;;4.37;83.27;102214.75;5053768;28;20424;-76
2020/12/02 04:40:20;;;;;;;22.38;13.80;;;;;;;4.36;83.15;102218.47;5053894;28;20021;-78
2020/12/02 04:42:46;;;;;;;22.95;14.27;;;;;;;4.37;83.19;102212.06;5051844;28;20059;-77
2020/12/02 04:45:12;;;;;;;21.20;13.25;;;;;;;4.37;83.34;102212.06;5052291;28;20025;-77
2020/12/02 04:47:39;;;;;;;23.95;14.45;;;;;;;4.38;83.30;102207.47;5020338;28;20474;-77
2020/12/02 04:50:23;;;;;;;22.55;13.52;;;;;;;4.37;83.34;102206.66;5052824;28;20105;-77
2020/12/02 04:53:03;;;;;;;24.00;14.70;;;;;;;4.36;83.13;102202.28;5053818;28;20466;-77
2020/12/02 04:55:28;;;;;;;23.38;13.70;;;;;;;4.36;83.06;102199.56;5052798;28;20095;-77
2020/12/02 04:57:54;;;;;;;21.88;13.63;;;;;;;4.37;83.32;102203.13;5053877;28;20493;-77
2020/12/02 05:00:26;;;;;;;26.45;14.23;;;;;;;4.38;83.07;102202.91;5052978;28;20013;-77
2020/12/02 05:02:51;;;;;;;18.20;12.63;;;;;;;4.39;83.15;102204.59;5053557;28;20033;-77
2020/12/02 05:05:19;;;;;;;21.52;13.40;;;;;;;4.38;83.23;102208.31;5052659;28;20040;-77
2020/12/02 05:07:45;;;;;;;20.80;14.43;;;;;;;4.38;83.05;102212.88;5052877;28;20028;-77
2020/12/02 05:10:15;;;;;;;21.60;14.30;;;;;;;4.38;83.08;102202.09;5053605;28;20024;-77
2020/12/02 05:12:43;;;;;;;25.65;15.30;;;;;;;4.39;83.09;102203.75;5053878;28;20060;-77
2020/12/02 05:15:19;;;;;;;22.45;14.48;;;;;;;4.40;83.15;102208.13;5051295;28;20017;-77
2020/12/02 05:17:45;;;;;;;27.48;15.85;;;;;;;4.40;83.03;102206.25;5053063;28;20088;-77
2020/12/02 05:20:15;;;;;;;22.50;14.45;;;;;;;4.41;82.86;102202.50;5035758;28;20058;-77
2020/12/02 05:22:45;;;;;;;25.38;13.90;;;;;;;4.42;82.80;102206.91;5036552;28;20567;-77
2020/12/02 05:25:31;;;;;;;26.95;14.25;;;;;;;4.40;82.88;102206.25;5051851;28;20029;-78
2020/12/02 05:28:11;;;;;;;20.52;13.75;;;;;;;4.39;82.71;102199.19;5051521;28;20036;-77
2020/12/02 05:30:37;;;;;;;18.80;13.02;;;;;;;4.40;82.63;102198.16;5053062;28;20111;-77
2020/12/02 05:33:16;;;;;;;23.75;14.38;;;;;;;4.38;82.64;102200.22;5052640;28;20051;-78
2020/12/02 05:35:49;;;;;;;23.23;13.07;;;;;;;4.39;82.75;102193.81;5050631;28;20051;-77
2020/12/02 05:38:35;;;;;;;20.73;13.27;;;;;;;4.40;82.75;102200.03;5052228;28;20122;-78
2020/12/02 05:41:01;;;;;;;20.48;13.07;;;;;;;4.40;82.79;102200.03;5051807;28;20033;-77
2020/12/02 05:43:38;;;;;;;19.88;13.40;;;;;;;4.36;82.54;102194.16;5052776;28;20056;-78
2020/12/02 05:46:04;;;;;;;19.85;12.68;;;;;;;4.37;82.35;102195.84;5051993;28;20123;-77
2020/12/02 05:48:37;;;;;;;21.27;13.27;;;;;;;4.34;82.44;102201.66;5052672;28;20029;-77
2020/12/02 05:51:02;;;;;;;22.25;13.88;;;;;;;4.34;82.50;102198.97;5051844;28;20063;-77
2020/12/02 05:53:39;;;;;;;20.00;12.77;;;;;;;4.32;82.42;102201.00;5051274;28;20454;-77
2020/12/02 05:56:05;;;;;;;21.48;12.52;;;;;;;4.32;82.20;102192.91;5081130;28;20032;-76
2020/12/02 05:58:32;;;;;;;19.02;13.23;;;;;;;4.31;82.18;102191.25;5034641;28;20535;-77
2020/12/02 06:00:57;;;;;;;20.38;13.57;;;;;;;4.31;82.20;102183.16;5051734;28;20033;-77
2020/12/02 06:03:32;;;;;;;19.48;12.40;;;;;;;4.29;82.29;102187.91;5051105;28;20025;-77
2020/12/02 06:06:05;;;;;;;20.52;13.10;;;;;;;4.29;81.98;102184.38;5065851;28;20378;-77
2020/12/02 06:08:38;;;;;;;20.52;12.80;;;;;;;4.28;82.09;102174.59;5051667;28;20421;-77
2020/12/02 06:11:15;;;;;;;21.15;12.73;;;;;;;4.26;81.78;102177.50;5048994;28;20024;-77
2020/12/02 06:13:45;;;;;;;17.55;11.73;;;;;;;4.27;81.82;102178.34;5051552;28;20056;-77
2020/12/02 06:16:12;;;;;;;20.08;12.93;;;;;;;4.27;81.97;102170.25;5049562;28;20041;-77
2020/12/02 06:18:38;;;;;;;20.25;13.05;;;;;;;4.26;81.82;102174.81;5051756;28;20557;-77
2020/12/02 06:21:03;;;;;;;18.80;11.65;;;;;;;4.27;81.80;102168.38;5049197;28;20028;-77
2020/12/02 06:23:34;;;;;;;19.55;12.45;;;;;;;4.27;81.74;102162.97;5050781;28;20063;-78
2020/12/02 06:25:59;;;;;;;17.45;11.95;;;;;;;4.27;81.75;102160.28;5048372;28;20418;-77
2020/12/02 06:28:44;;;;;;;18.20;11.80;;;;;;;4.30;81.41;102159.03;5053145;28;20032;-77
2020/12/02 06:31:16;;;;;;;17.63;11.50;;;;;;;4.31;81.81;102158.84;5040253;28;20064;-77
2020/12/02 06:33:42;;;;;;;20.23;12.38;;;;;;;4.34;81.38;102158.47;5049874;28;20128;-77
2020/12/02 06:36:29;;;;;;;18.98;11.32;;;;;;;4.36;81.62;102152.84;5050672;28;20174;-77
2020/12/02 06:39:10;;;;;;;22.10;13.25;;;;;;;4.37;81.45;102159.94;5045507;28;20033;-77
2020/12/02 06:41:42;;;;;;;19.50;11.73;;;;;;;4.38;81.08;102154.31;5047058;28;20033;-77
2020/12/02 06:44:13;;;;;;;17.70;11.50;;;;;;;4.40;81.36;102149.56;5051555;28;20037;-77
2020/12/02 06:46:53;;;;;;;17.37;11.90;;;;;;;4.41;81.35;102147.69;5051772;28;20025;-77
2020/12/02 06:49:19;;;;;;;20.40;12.35;;;;;;;4.43;81.34;102151.84;5050676;28;20273;-77
2020/12/02 06:52:05;;;;;;;18.83;11.35;;;;;;;4.44;81.11;102145.41;5050311;28;20025;-77
2020/12/02 06:54:33;;;;;;;19.27;11.88;;;;;;;4.47;80.88;102151.44;5047766;28;20060;-77
2020/12/02 06:57:25;;;;;;;18.98;11.70;;;;;;;4.48;81.06;102148.56;5049093;28;20451;-78
2020/12/02 07:00:02;;;;;;;19.63;11.77;;;;;;;4.49;80.85;102147.50;5081565;28;20067;-77
2020/12/02 07:02:53;;;;;;;18.83;12.15;;;;;;;4.51;80.88;102139.22;5049639;28;20024;-77
2020/12/02 07:05:36;;;;;;;20.17;11.80;;;;;;;4.50;80.56;102141.09;5039015;28;20521;-77
2020/12/02 07:08:10;;;;;;;;;;;;;;;4.50;80.42;102133.00;5044658;28;20448;-77
2020/12/02 07:10:36;;;;;;;19.75;11.75;;;;;;;4.49;80.29;102130.50;5050484;28;19964;-77
2020/12/02 07:13:01;;;;;;;19.08;12.23;;;;;;;4.48;80.50;102131.53;5050016;28;20466;-77
2020/12/02 07:15:26;;;;;;;19.55;12.13;;;;;;;4.47;80.50;102137.94;5033574;28;20109;-77
2020/12/02 07:17:52;;;;;;;15.90;12.27;;;;;;;4.46;80.45;102129.00;5033557;28;20032;-77
2020/12/02 07:20:17;;;;;;;18.23;12.95;;;;;;;4.43;80.33;102130.25;5050128;28;20035;-79
2020/12/02 07:22:51;;;;;;;19.42;12.20;;;;;;;4.45;80.43;102133.59;5049585;28;20382;-77
2020/12/02 07:25:17;;;;;;;18.83;12.60;;;;;;;4.47;80.44;102135.25;5048758;28;20036;-78
2020/12/02 07:27:43;;;;;;;18.13;11.52;;;;;;;4.49;80.50;102127.78;5048966;28;20098;-78
2020/12/02 07:30:18;;;;;;;17.25;12.00;;;;;;;4.51;80.28;102128.44;5048670;28;20500;-77
2020/12/02 07:32:43;;;;;;;20.45;12.38;;;;;;;4.51;80.13;102126.56;5029624;28;20049;-77
2020/12/02 07:35:16;;;;;;;18.13;12.02;;;;;;;4.51;80.11;102117.63;5045399;28;20025;-77
2020/12/02 07:37:42;;;;;;;18.80;11.82;;;;;;;4.52;80.25;102127.38;5048745;28;20021;-77
2020/12/02 07:40:30;;;;;;;18.58;12.70;;;;;;;4.51;80.09;102125.72;5032808;28;20036;-76
2020/12/02 07:42:56;;;;;;;20.77;11.90;;;;;;;4.50;79.89;102130.31;5075763;28;20036;-76
2020/12/02 07:45:24;;;;;;;21.27;12.68;;;;;;;4.48;80.10;102126.97;5032674;28;20029;-77
2020/12/02 07:48:07;;;;;;;22.88;13.23;;;;;;;4.47;80.05;102127.97;5033466;28;20104;-77
2020/12/02 07:50:54;;;;;;;16.45;11.48;;;;;;;4.43;80.30;102124.84;5046357;28;20079;-77
2020/12/02 07:53:42;;;;;;;18.40;11.18;;;;;;;4.43;80.25;102113.22;5050730;28;20075;-77
2020/12/02 07:56:13;;;;;;;18.73;12.90;;;;;;;4.43;80.36;102113.22;5044137;28;20025;-78
2020/12/02 07:58:40;;;;;;;20.00;13.65;;;;;;;4.41;80.18;102110.69;5051514;28;20037;-77
2020/12/02 08:01:07;;;;;;;17.90;11.68;;;;;;;4.41;80.17;102107.19;5033251;28;20506;-77
2020/12/02 08:03:37;;;;;;;19.33;12.55;;;;;;;4.43;80.38;102105.94;5053379;28;20105;-76
2020/12/02 08:06:15;;;;;;;19.13;12.25;;;;;;;4.40;80.27;102106.34;5041338;28;20032;-77
2020/12/02 08:08:41;;;;;;;19.73;12.70;;;;;;;4.42;80.14;102107.00;5036686;28;20032;-77
2020/12/02 08:11:08;;;;;;;20.95;13.15;;;;;;;4.40;80.14;102100.94;5054986;28;20028;-77
2020/12/02 08:13:35;;;;;;;18.63;12.68;;;;;;;4.40;80.16;102103.66;5037187;28;20032;-76
2020/12/02 08:16:01;;;;;;;16.67;12.10;;;;;;;4.40;80.23;102100.94;5053240;28;20367;-77
2020/12/02 08:18:31;;;;;;;17.83;11.60;;;;;;;4.40;80.37;102092.84;5053914;28;20083;-77
2020/12/02 08:21:13;;;;;;;18.65;11.60;;;;;;;4.41;80.27;102097.19;5036587;28;20041;-72
2020/12/02 08:23:38;;;;;;;20.58;12.07;;;;;;;4.42;80.31;102098.88;5049252;28;20085;-72
2020/12/02 08:26:11;;;;;;;17.63;12.35;;;;;;;4.44;79.94;102083.28;5052205;28;20029;-72
2020/12/02 08:28:37;;;;;;;17.70;11.60;;;;;;;4.45;80.16;102090.38;5054166;28;20048;-72
2020/12/02 08:31:23;;;;;;;20.10;12.05;;;;;;;4.45;80.11;102084.97;5051793;28;20025;-72
2020/12/02 08:34:07;;;;;;;21.20;13.13;;;;;;;4.49;80.12;102085.41;5037091;28;20054;-73
2020/12/02 08:36:33;;;;;;;19.80;12.95;;;;;;;4.50;79.92;102075.44;5040286;28;20470;-72
2020/12/02 08:38:58;;;;;;;19.20;12.32;;;;;;;4.49;79.97;102071.06;5051748;28;20035;-75
2020/12/02 08:41:23;;;;;;;19.73;12.00;;;;;;;4.50;79.90;102070.03;5034794;28;20035;-71
2020/12/02 08:43:49;;;;;;;19.60;11.63;;;;;;;4.52;80.11;102067.97;5053472;28;20482;-72
2020/12/02 08:46:20;;;;;;;19.05;11.35;;;;;;;4.52;79.88;102065.25;5053225;28;20021;-72
2020/12/02 08:48:48;;;;;;;20.85;12.25;;;;;;;4.53;80.11;102070.47;5052305;28;20032;-73
2020/12/02 08:51:15;;;;;;;19.27;11.32;;;;;;;4.53;79.75;102066.91;5035291;28;20482;-75
2020/12/02 08:53:41;;;;;;;17.48;11.18;;;;;;;4.53;79.64;102059.69;5053141;28;20031;-74
2020/12/02 08:56:34;;;;;;;18.83;12.00;;;;;;;4.55;79.86;102059.44;5049829;28;20033;-74
2020/12/02 08:59:00;;;;;;;17.23;12.20;;;;;;;4.57;79.78;102049.28;5051110;28;20478;-74
2020/12/02 09:01:26;;;;;;;17.33;11.80;;;;;;;4.59;79.74;102049.94;5052541;28;20033;-74
2020/12/02 09:03:51;;;;;;;16.98;11.68;;;;;;;4.58;79.72;102048.25;5053989;28;20584;-76
2020/12/02 09:06:19;;;;;;;20.63;12.30;;;;;;;4.58;79.54;102045.53;5053358;28;20028;-76
2020/12/02 09:08:45;;;;;;;16.77;11.73;;;;;;;4.58;79.66;102046.41;5053371;28;20047;-76
2020/12/02 09:11:11;;;;;;;17.73;10.65;;;;;;;4.59;79.73;102044.53;5081570;28;20033;-77
2020/12/02 09:13:36;;;;;;;14.63;9.95;;;;;;;4.62;79.67;102036.00;5016237;28;20090;-77
2020/12/02 09:16:01;;;;;;;19.15;12.65;;;;;;;4.65;79.53;102035.59;5053011;28;20533;-76
2020/12/02 09:18:27;;;;;;;17.88;11.82;;;;;;;4.64;79.29;102039.34;5051908;28;20028;-77
2020/12/02 09:20:52;;;;;;;20.67;12.18;;;;;;;4.63;79.29;102027.69;5053458;28;20032;-77
2020/12/02 09:23:18;;;;;;;20.10;13.73;;;;;;;4.61;79.38;102029.78;5053029;28;20403;-76
2020/12/02 09:25:43;;;;;;;18.38;11.82;;;;;;;4.62;79.33;102025.22;5052985;28;20485;-75
2020/12/02 09:28:08;;;;;;;18.90;12.48;;;;;;;4.62;79.36;102025.22;5052311;28;20083;-76
2020/12/02 09:30:35;;;;;;;20.17;13.05;;;;;;;4.61;78.94;102023.53;5051415;28;20028;-77
2020/12/02 09:33:01;;;;;;;21.65;13.23;;;;;;;4.62;79.04;102026.03;5051848;28;20049;-77
2020/12/02 09:35:27;;;;;;;21.80;12.77;;;;;;;4.58;78.75;102019.38;5052024;28;20044;-78
2020/12/02 09:37:53;;;;;;;23.20;14.02;;;;;;;4.58;78.97;102026.63;5051747;28;20028;-78
2020/12/02 09:40:18;;;;;;;25.15;15.00;;;;;;;4.57;79.16;102006.06;5078275;28;20036;-79
2020/12/02 09:42:59;;;;;;;22.90;12.98;;;;;;;4.57;78.75;102017.69;5048874;28;20378;-79
2020/12/02 09:45:39;;;;;;;22.55;13.68;;;;;;;4.57;79.01;102016.88;5052648;28;20017;-79
2020/12/02 09:48:15;;;;;;;24.42;13.50;;;;;;;4.56;79.04;102005.25;5052040;28;20478;-79
2020/12/02 09:50:41;;;;;;;21.60;13.18;;;;;;;4.56;79.18;102004.41;5084705;28;20063;-79
2020/12/02 09:53:33;;;;;;;24.70;14.10;;;;;;;4.55;79.14;102000.03;5049164;28;20476;-78
2020/12/02 09:55:58;;;;;;;21.40;13.70;;;;;;;4.55;79.06;101990.06;5048984;28;20060;-78
2020/12/02 09:58:24;;;;;;;23.70;14.30;;;;;;;4.55;78.99;101991.94;5050602;28;20478;-77
2020/12/02 10:00:55;;;;;;;23.25;13.45;;;;;;;4.56;79.28;101982.81;5052622;28;20024;-78
2020/12/02 10:03:29;;;;;;;26.20;16.23;;;;;;;4.55;78.95;101981.13;5068675;28;20048;-77
2020/12/02 10:06:13;;;;;;;23.48;15.48;;;;;;;4.55;79.25;101970.31;5052311;28;20036;-78
2020/12/02 10:08:56;;;;;;;24.70;14.13;;;;;;;4.54;79.24;101969.50;5052054;28;20494;-78
2020/12/02 10:11:39;;;;;;;26.10;15.70;;;;;;;4.56;79.41;101958.50;5034968;28;20427;-78
2020/12/02 10:14:24;;;;;;;26.83;15.95;;;;;;;4.56;79.36;101947.69;5049275;28;20028;-77
2020/12/02 10:17:13;;;;;;;26.27;15.15;;;;;;;4.56;79.49;101955.81;5051265;28;20025;-78
2020/12/02 10:19:57;;;;;;;25.23;15.65;;;;;;;4.57;79.45;101946.66;5048037;28;20028;-78
2020/12/02 10:22:28;;;;;;;25.52;15.15;;;;;;;4.58;79.67;101943.75;5050085;28;20079;-78
2020/12/02 10:25:21;;;;;;;24.63;15.65;;;;;;;4.60;79.80;101936.25;5053060;28;20025;-78
2020/12/02 10:28:05;;;;;;;27.15;16.60;;;;;;;4.64;79.26;101931.31;5047162;28;20031;-78
2020/12/02 10:30:31;;;;;;;28.63;16.73;;;;;;;4.68;79.59;101935.25;5050902;28;20504;-77
2020/12/02 10:33:42;;;;;;;29.85;17.20;;;;;;;4.69;79.41;101931.50;5050204;28;20056;-78
2020/12/02 10:36:07;;;;;;;26.35;16.73;;;;;;;4.72;79.54;101928.41;5049672;28;20502;-78
2020/12/02 10:38:51;;;;;;;29.30;16.17;;;;;;;4.72;79.44;101923.00;5030827;28;20033;-76
2020/12/02 10:41:43;;;;;;;22.83;14.93;;;;;;;4.74;79.42;101918.19;5048693;28;20044;-77
2020/12/02 10:44:24;;;;;;;27.73;15.95;;;;;;;4.75;79.51;101914.47;5033518;28;20033;-78
2020/12/02 10:46:52;;;;;;;24.10;15.98;;;;;;;4.76;79.52;101907.19;5045889;28;20373;-77
2020/12/02 10:49:28;;;;;;;31.50;16.42;;;;;;;4.75;79.88;101900.13;5050703;28;20104;-77
2020/12/02 10:51:55;;;;;;;25.98;16.25;;;;;;;4.74;79.73;101893.06;5051649;28;20075;-76
2020/12/02 10:54:20;;;;;;;28.40;17.67;;;;;;;4.73;79.56;101892.22;5030823;28;20359;-78
2020/12/02 10:56:45;;;;;;;25.55;15.93;;;;;;;4.73;79.71;101897.63;5032794;28;20087;-76
2020/12/02 10:59:12;;;;;;;27.05;15.90;;;;;;;4.72;79.70;101890.56;5033239;28;20067;-76
2020/12/02 11:01:41;;;;;;;30.35;16.10;;;;;;;4.72;79.75;101889.72;5047840;28;20025;-75
2020/12/02 11:04:07;;;;;;;24.80;16.17;;;;;;;4.72;79.76;101887.03;5033506;28;20754;-76
2020/12/02 11:06:53;;;;;;;26.60;16.75;;;;;;;4.69;79.53;101869.34;5047874;28;20120;-77
2020/12/02 11:09:39;;;;;;;27.60;16.02;;;;;;;4.69;79.79;101874.75;5049568;28;20501;-74
2020/12/02 11:12:19;;;;;;;26.23;15.48;;;;;;;4.73;79.73;101865.22;5049215;28;20033;-72
2020/12/02 11:15:00;;;;;;;25.42;16.75;;;;;;;4.75;79.76;101862.31;5032117;28;20050;-72
2020/12/02 11:17:28;;;;;;;27.38;16.98;;;;;;;4.76;79.65;101866.66;5048901;28;20486;-74
2020/12/02 11:19:59;;;;;;;29.98;16.95;;;;;;;4.77;79.57;101866.44;5052374;28;20028;-74
2020/12/02 11:23:02;;;;;;;26.95;15.93;;;;;;;4.81;79.50;101859.59;5047156;28;20060;-73
2020/12/02 11:25:34;;;;;;;28.17;16.23;;;;;;;4.83;79.62;101860.22;5051283;28;20374;-74
2020/12/02 11:27:59;;;;;;;28.05;16.88;;;;;;;4.84;79.52;101858.34;5031330;28;20025;-73
2020/12/02 11:30:29;;;;;;;23.50;14.75;;;;;;;4.82;79.47;101846.91;5050375;28;20025;-73
2020/12/02 11:33:14;;;;;;;27.48;16.35;;;;;;;4.80;79.32;101841.75;5031287;28;20406;-74